sensor_id;sensor_type;location;lat;lon;timestamp;temperature;humidity
72762;SHT30;60886;55.034;73.150;2023-01-23T00:01:33;-4.83;68.52
72762;SHT30;60886;55.034;73.150;2023-01-23T00:04:00;-4.76;68.17
72762;SHT30;60886;55.034;73.150;2023-01-23T00:06:39;-4.66;67.86
72762;SHT30;60886;55.034;73.150;2023-01-23T00:09:06;-4.53;67.65
72762;SHT30;60886;55.034;73.150;2023-01-23T00:11:36;-4.48;67.76
72762;SHT30;60886;55.034;73.150;2023-01-23T00:14:02;-4.48;67.93
72762;SHT30;60886;55.034;73.150;2023-01-23T00:16:30;-4.43;67.90
72762;SHT30;60886;55.034;73.150;2023-01-23T00:18:59;-4.46;68.09
72762;SHT30;60886;55.034;73.150;2023-01-23T00:21:27;-4.42;68.28
72762;SHT30;60886;55.034;73.150;2023-01-23T00:23:55;-4.40;68.58
72762;SHT30;60886;55.034;73.150;2023-01-23T00:26:25;-4.45;68.61
72762;SHT30;60886;55.034;73.150;2023-01-23T00:28:52;-4.48;68.72
72762;SHT30;60886;55.034;73.150;2023-01-23T00:31:23;-4.46;68.75
72762;SHT30;60886;55.034;73.150;2023-01-23T00:34:01;-4.39;68.80
72762;SHT30;60886;55.034;73.150;2023-01-23T00:36:30;-4.37;68.81
72762;SHT30;60886;55.034;73.150;2023-01-23T00:39:15;-4.42;69.03
72762;SHT30;60886;55.034;73.150;2023-01-23T00:41:45;-4.46;69.40
72762;SHT30;60886;55.034;73.150;2023-01-23T00:44:12;-4.49;69.73
72762;SHT30;60886;55.034;73.150;2023-01-23T00:46:39;-4.48;69.86
72762;SHT30;60886;55.034;73.150;2023-01-23T00:49:05;-4.40;69.96
72762;SHT30;60886;55.034;73.150;2023-01-23T00:51:32;-4.36;69.93
72762;SHT30;60886;55.034;73.150;2023-01-23T00:53:59;-4.36;70.00
72762;SHT30;60886;55.034;73.150;2023-01-23T00:56:26;-4.32;70.05
72762;SHT30;60886;55.034;73.150;2023-01-23T00:58:52;-4.28;70.08
72762;SHT30;60886;55.034;73.150;2023-01-23T01:01:22;-4.30;70.23
72762;SHT30;60886;55.034;73.150;2023-01-23T01:03:48;-4.33;70.31
72762;SHT30;60886;55.034;73.150;2023-01-23T01:06:15;-4.26;70.37
72762;SHT30;60886;55.034;73.150;2023-01-23T01:08:41;-4.26;70.14
72762;SHT30;60886;55.034;73.150;2023-01-23T01:11:13;-4.29;70.24
72762;SHT30;60886;55.034;73.150;2023-01-23T01:13:49;-4.28;70.29
72762;SHT30;60886;55.034;73.150;2023-01-23T01:16:17;-4.25;70.32
72762;SHT30;60886;55.034;73.150;2023-01-23T01:18:44;-4.25;70.25
72762;SHT30;60886;55.034;73.150;2023-01-23T01:21:12;-4.28;70.26
72762;SHT30;60886;55.034;73.150;2023-01-23T01:23:45;-4.23;70.33
72762;SHT30;60886;55.034;73.150;2023-01-23T01:26:12;-4.22;70.21
72762;SHT30;60886;55.034;73.150;2023-01-23T01:28:39;-4.21;70.04
72762;SHT30;60886;55.034;73.150;2023-01-23T01:31:16;-4.19;70.47
72762;SHT30;60886;55.034;73.150;2023-01-23T01:33:44;-4.11;70.06
72762;SHT30;60886;55.034;73.150;2023-01-23T01:36:12;-4.12;70.14
72762;SHT30;60886;55.034;73.150;2023-01-23T01:38:39;-4.13;70.35
72762;SHT30;60886;55.034;73.150;2023-01-23T01:41:06;-4.13;70.29
72762;SHT30;60886;55.034;73.150;2023-01-23T01:43:33;-4.13;70.39
72762;SHT30;60886;55.034;73.150;2023-01-23T01:46:17;-4.12;70.37
72762;SHT30;60886;55.034;73.150;2023-01-23T01:51:45;-4.09;70.42
72762;SHT30;60886;55.034;73.150;2023-01-23T01:54:31;-4.13;70.64
72762;SHT30;60886;55.034;73.150;2023-01-23T02:00:05;-4.13;70.98
72762;SHT30;60886;55.034;73.150;2023-01-23T02:02:52;-4.09;71.00
72762;SHT30;60886;55.034;73.150;2023-01-23T02:05:43;-4.11;71.18
72762;SHT30;60886;55.034;73.150;2023-01-23T02:08:28;-4.12;71.17
72762;SHT30;60886;55.034;73.150;2023-01-23T02:11:09;-4.08;71.07
72762;SHT30;60886;55.034;73.150;2023-01-23T02:13:40;-4.11;71.15
72762;SHT30;60886;55.034;73.150;2023-01-23T02:16:16;-4.16;71.42
72762;SHT30;60886;55.034;73.150;2023-01-23T02:18:50;-4.15;71.62
72762;SHT30;60886;55.034;73.150;2023-01-23T02:21:25;-4.16;71.72
72762;SHT30;60886;55.034;73.150;2023-01-23T02:26:36;-4.13;71.78
72762;SHT30;60886;55.034;73.150;2023-01-23T02:29:08;-4.16;71.86
72762;SHT30;60886;55.034;73.150;2023-01-23T02:31:55;-4.16;71.95
72762;SHT30;60886;55.034;73.150;2023-01-23T02:34:22;-4.18;72.10
72762;SHT30;60886;55.034;73.150;2023-01-23T02:36:54;-4.16;72.27
72762;SHT30;60886;55.034;73.150;2023-01-23T02:39:21;-4.12;72.21
72762;SHT30;60886;55.034;73.150;2023-01-23T02:41:58;-4.15;72.40
72762;SHT30;60886;55.034;73.150;2023-01-23T02:44:39;-4.13;72.46
72762;SHT30;60886;55.034;73.150;2023-01-23T02:47:09;-4.12;72.50
72762;SHT30;60886;55.034;73.150;2023-01-23T02:49:41;-4.09;72.62
72762;SHT30;60886;55.034;73.150;2023-01-23T02:52:09;-4.09;72.76
72762;SHT30;60886;55.034;73.150;2023-01-23T02:54:35;-4.09;72.65
72762;SHT30;60886;55.034;73.150;2023-01-23T02:57:08;-4.12;72.74
72762;SHT30;60886;55.034;73.150;2023-01-23T02:59:34;-4.09;72.98
72762;SHT30;60886;55.034;73.150;2023-01-23T03:02:24;-4.11;72.88
72762;SHT30;60886;55.034;73.150;2023-01-23T03:04:57;-4.09;73.01
72762;SHT30;60886;55.034;73.150;2023-01-23T03:07:27;-4.06;73.07
72762;SHT30;60886;55.034;73.150;2023-01-23T03:09:55;-4.03;73.04
72762;SHT30;60886;55.034;73.150;2023-01-23T03:12:25;-4.02;73.08
72762;SHT30;60886;55.034;73.150;2023-01-23T03:14:52;-4.02;73.21
72762;SHT30;60886;55.034;73.150;2023-01-23T03:17:31;-4.03;73.22
72762;SHT30;60886;55.034;73.150;2023-01-23T03:19:58;-3.99;73.32
72762;SHT30;60886;55.034;73.150;2023-01-23T03:22:26;-3.95;73.32
72762;SHT30;60886;55.034;73.150;2023-01-23T03:25:03;-3.97;73.40
72762;SHT30;60886;55.034;73.150;2023-01-23T03:27:30;-3.98;73.38
72762;SHT30;60886;55.034;73.150;2023-01-23T03:29:58;-4.01;73.49
72762;SHT30;60886;55.034;73.150;2023-01-23T03:32:48;-3.97;73.59
72762;SHT30;60886;55.034;73.150;2023-01-23T03:35:16;-3.99;73.56
72762;SHT30;60886;55.034;73.150;2023-01-23T03:37:44;-3.89;73.54
72762;SHT30;60886;55.034;73.150;2023-01-23T03:40:21;-3.87;73.41
72762;SHT30;60886;55.034;73.150;2023-01-23T03:43:06;-3.92;73.48
72762;SHT30;60886;55.034;73.150;2023-01-23T03:45:40;-3.91;73.73
72762;SHT30;60886;55.034;73.150;2023-01-23T03:48:07;-3.88;73.53
72762;SHT30;60886;55.034;73.150;2023-01-23T03:50:36;-3.81;73.52
72762;SHT30;60886;55.034;73.150;2023-01-23T03:53:04;-3.77;73.30
72762;SHT30;60886;55.034;73.150;2023-01-23T03:55:30;-3.82;73.60
72762;SHT30;60886;55.034;73.150;2023-01-23T03:58:06;-3.85;73.60
72762;SHT30;60886;55.034;73.150;2023-01-23T04:00:34;-3.82;73.81
72762;SHT30;60886;55.034;73.150;2023-01-23T04:03:04;-3.82;73.81
72762;SHT30;60886;55.034;73.150;2023-01-23T04:05:33;-3.79;73.84
72762;SHT30;60886;55.034;73.150;2023-01-23T04:08:05;-3.73;73.96
72762;SHT30;60886;55.034;73.150;2023-01-23T04:10:35;-3.67;73.78
72762;SHT30;60886;55.034;73.150;2023-01-23T04:13:07;-3.66;73.70
72762;SHT30;60886;55.034;73.150;2023-01-23T04:15:37;-3.58;73.75
72762;SHT30;60886;55.034;73.150;2023-01-23T04:18:05;-3.54;73.30
72762;SHT30;60886;55.034;73.150;2023-01-23T04:20:32;-3.54;73.23
72762;SHT30;60886;55.034;73.150;2023-01-23T04:22:59;-3.48;73.21
72762;SHT30;60886;55.034;73.150;2023-01-23T04:25:27;-3.53;73.08
72762;SHT30;60886;55.034;73.150;2023-01-23T04:27:55;-3.54;73.39
72762;SHT30;60886;55.034;73.150;2023-01-23T04:30:21;-3.48;73.19
72762;SHT30;60886;55.034;73.150;2023-01-23T04:32:47;-3.47;72.96
72762;SHT30;60886;55.034;73.150;2023-01-23T04:35:17;-3.48;73.24
72762;SHT30;60886;55.034;73.150;2023-01-23T04:37:43;-3.36;73.03
72762;SHT30;60886;55.034;73.150;2023-01-23T04:40:21;-3.27;73.03
72762;SHT30;60886;55.034;73.150;2023-01-23T04:42:55;-3.27;72.82
72762;SHT30;60886;55.034;73.150;2023-01-23T04:45:30;-3.30;72.76
72762;SHT30;60886;55.034;73.150;2023-01-23T04:48:34;-3.24;72.76
72762;SHT30;60886;55.034;73.150;2023-01-23T04:51:01;-3.19;72.62
72762;SHT30;60886;55.034;73.150;2023-01-23T04:53:27;-3.12;72.42
72762;SHT30;60886;55.034;73.150;2023-01-23T04:55:59;-3.10;72.34
72762;SHT30;60886;55.034;73.150;2023-01-23T04:58:31;-3.06;72.35
72762;SHT30;60886;55.034;73.150;2023-01-23T05:01:01;-3.00;72.25
72762;SHT30;60886;55.034;73.150;2023-01-23T05:03:31;-2.92;72.14
72762;SHT30;60886;55.034;73.150;2023-01-23T05:06:10;-2.91;72.07
72762;SHT30;60886;55.034;73.150;2023-01-23T05:08:38;-2.95;71.97
72762;SHT30;60886;55.034;73.150;2023-01-23T05:11:25;-2.86;72.05
72762;SHT30;60886;55.034;73.150;2023-01-23T05:13:51;-2.75;71.74
72762;SHT30;60886;55.034;73.150;2023-01-23T05:16:22;-2.72;71.71
72762;SHT30;60886;55.034;73.150;2023-01-23T05:19:08;-2.78;71.74
72762;SHT30;60886;55.034;73.150;2023-01-23T05:21:35;-2.69;71.61
72762;SHT30;60886;55.034;73.150;2023-01-23T05:24:03;-2.68;71.76
72762;SHT30;60886;55.034;73.150;2023-01-23T05:26:29;-2.64;71.42
72762;SHT30;60886;55.034;73.150;2023-01-23T05:28:59;-2.58;71.38
72762;SHT30;60886;55.034;73.150;2023-01-23T05:31:26;-2.58;71.44
72762;SHT30;60886;55.034;73.150;2023-01-23T05:34:20;-2.47;71.35
72762;SHT30;60886;55.034;73.150;2023-01-23T05:36:47;-2.36;71.01
72762;SHT30;60886;55.034;73.150;2023-01-23T05:39:16;-2.28;70.82
72762;SHT30;60886;55.034;73.150;2023-01-23T05:42:00;-2.26;70.61
72762;SHT30;60886;55.034;73.150;2023-01-23T05:44:37;-2.23;70.52
72762;SHT30;60886;55.034;73.150;2023-01-23T05:47:29;-2.34;70.39
72762;SHT30;60886;55.034;73.150;2023-01-23T05:50:10;-2.26;70.80
72762;SHT30;60886;55.034;73.150;2023-01-23T05:52:39;-2.37;70.51
72762;SHT30;60886;55.034;73.150;2023-01-23T05:55:14;-2.34;71.05
72762;SHT30;60886;55.034;73.150;2023-01-23T05:57:44;-2.30;70.56
72762;SHT30;60886;55.034;73.150;2023-01-23T06:00:35;-2.23;70.41
72762;SHT30;60886;55.034;73.150;2023-01-23T06:03:35;-2.20;70.41
72762;SHT30;60886;55.034;73.150;2023-01-23T06:06:26;-2.13;69.89
72762;SHT30;60886;55.034;73.150;2023-01-23T06:08:52;-2.10;70.16
72762;SHT30;60886;55.034;73.150;2023-01-23T06:11:19;-2.13;70.25
72762;SHT30;60886;55.034;73.150;2023-01-23T06:13:45;-2.07;69.93
72762;SHT30;60886;55.034;73.150;2023-01-23T06:16:12;-2.03;70.18
72762;SHT30;60886;55.034;73.150;2023-01-23T06:18:44;-2.00;69.96
72762;SHT30;60886;55.034;73.150;2023-01-23T06:21:15;-2.01;69.99
72762;SHT30;60886;55.034;73.150;2023-01-23T06:23:48;-2.06;69.85
72762;SHT30;60886;55.034;73.150;2023-01-23T06:26:25;-2.07;70.11
72762;SHT30;60886;55.034;73.150;2023-01-23T06:28:54;-2.04;70.30
72762;SHT30;60886;55.034;73.150;2023-01-23T06:31:20;-1.97;69.86
72762;SHT30;60886;55.034;73.150;2023-01-23T06:33:53;-2.01;70.05
72762;SHT30;60886;55.034;73.150;2023-01-23T06:36:23;-1.97;70.30
72762;SHT30;60886;55.034;73.150;2023-01-23T06:38:50;-2.03;70.22
72762;SHT30;60886;55.034;73.150;2023-01-23T06:41:21;-1.98;70.28
72762;SHT30;60886;55.034;73.150;2023-01-23T06:43:51;-1.97;70.12
72762;SHT30;60886;55.034;73.150;2023-01-23T06:46:24;-2.00;70.59
72762;SHT30;60886;55.034;73.150;2023-01-23T06:48:56;-2.01;70.46
72762;SHT30;60886;55.034;73.150;2023-01-23T06:51:34;-1.94;70.25
72762;SHT30;60886;55.034;73.150;2023-01-23T06:54:00;-1.83;69.94
72762;SHT30;60886;55.034;73.150;2023-01-23T06:56:27;-1.73;69.77
72762;SHT30;60886;55.034;73.150;2023-01-23T06:59:05;-1.70;69.96
72762;SHT30;60886;55.034;73.150;2023-01-23T07:01:36;-1.62;69.62
72762;SHT30;60886;55.034;73.150;2023-01-23T07:04:26;-1.70;69.77
72762;SHT30;60886;55.034;73.150;2023-01-23T07:06:58;-1.56;69.77
72762;SHT30;60886;55.034;73.150;2023-01-23T07:09:33;-1.59;69.45
72762;SHT30;60886;55.034;73.150;2023-01-23T07:12:19;-1.63;69.78
72762;SHT30;60886;55.034;73.150;2023-01-23T07:14:50;-1.59;69.60
72762;SHT30;60886;55.034;73.150;2023-01-23T07:17:23;-1.67;70.10
72762;SHT30;60886;55.034;73.150;2023-01-23T07:20:02;-1.84;70.95
72762;SHT30;60886;55.034;73.150;2023-01-23T07:22:29;-1.90;72.07
72762;SHT30;60886;55.034;73.150;2023-01-23T07:24:56;-1.76;71.71
72762;SHT30;60886;55.034;73.150;2023-01-23T07:27:32;-1.76;71.37
72762;SHT30;60886;55.034;73.150;2023-01-23T07:29:59;-1.74;71.53
72762;SHT30;60886;55.034;73.150;2023-01-23T07:32:25;-1.65;71.42
72762;SHT30;60886;55.034;73.150;2023-01-23T07:34:51;-1.65;71.17
72762;SHT30;60886;55.034;73.150;2023-01-23T07:37:18;-1.55;70.81
72762;SHT30;60886;55.034;73.150;2023-01-23T07:39:55;-1.53;70.32
72762;SHT30;60886;55.034;73.150;2023-01-23T07:42:21;-1.58;70.30
72762;SHT30;60886;55.034;73.150;2023-01-23T07:44:51;-1.62;70.47
72762;SHT30;60886;55.034;73.150;2023-01-23T07:47:17;-1.72;70.75
72762;SHT30;60886;55.034;73.150;2023-01-23T07:49:53;-1.67;70.42
72762;SHT30;60886;55.034;73.150;2023-01-23T07:52:20;-1.60;70.59
72762;SHT30;60886;55.034;73.150;2023-01-23T07:54:57;-1.58;70.59
72762;SHT30;60886;55.034;73.150;2023-01-23T07:57:28;-1.55;70.31
72762;SHT30;60886;55.034;73.150;2023-01-23T07:59:55;-1.56;70.15
72762;SHT30;60886;55.034;73.150;2023-01-23T08:02:26;-1.39;69.85
72762;SHT30;60886;55.034;73.150;2023-01-23T08:04:52;-1.45;69.89
72762;SHT30;60886;55.034;73.150;2023-01-23T08:07:24;-1.45;69.63
72762;SHT30;60886;55.034;73.150;2023-01-23T08:09:50;-1.49;70.11
72762;SHT30;60886;55.034;73.150;2023-01-23T08:12:17;-1.43;69.89
72762;SHT30;60886;55.034;73.150;2023-01-23T08:14:48;-1.42;69.64
72762;SHT30;60886;55.034;73.150;2023-01-23T08:17:20;-1.36;69.45
72762;SHT30;60886;55.034;73.150;2023-01-23T08:19:47;-1.39;70.28
72762;SHT30;60886;55.034;73.150;2023-01-23T08:22:14;-1.32;69.64
72762;SHT30;60886;55.034;73.150;2023-01-23T08:24:45;-1.43;69.68
72762;SHT30;60886;55.034;73.150;2023-01-23T08:27:14;-1.48;69.80
72762;SHT30;60886;55.034;73.150;2023-01-23T08:29:51;-1.43;69.46
72762;SHT30;60886;55.034;73.150;2023-01-23T08:32:28;-1.51;69.70
72762;SHT30;60886;55.034;73.150;2023-01-23T08:34:55;-1.43;69.92
72762;SHT30;60886;55.034;73.150;2023-01-23T08:37:23;-1.49;69.74
72762;SHT30;60886;55.034;73.150;2023-01-23T08:39:55;-1.46;69.58
72762;SHT30;60886;55.034;73.150;2023-01-23T08:42:23;-1.43;69.88
72762;SHT30;60886;55.034;73.150;2023-01-23T08:44:49;-1.48;69.76
72762;SHT30;60886;55.034;73.150;2023-01-23T08:47:15;-1.51;69.94
72762;SHT30;60886;55.034;73.150;2023-01-23T08:49:42;-1.60;69.98
72762;SHT30;60886;55.034;73.150;2023-01-23T08:52:08;-1.62;70.18
72762;SHT30;60886;55.034;73.150;2023-01-23T08:54:34;-1.65;70.19
72762;SHT30;60886;55.034;73.150;2023-01-23T08:57:01;-1.65;70.18
72762;SHT30;60886;55.034;73.150;2023-01-23T08:59:28;-1.67;70.02
72762;SHT30;60886;55.034;73.150;2023-01-23T09:01:54;-1.76;70.52
72762;SHT30;60886;55.034;73.150;2023-01-23T09:04:20;-1.83;70.59
72762;SHT30;60886;55.034;73.150;2023-01-23T09:06:47;-1.72;70.71
72762;SHT30;60886;55.034;73.150;2023-01-23T09:09:16;-1.73;70.76
72762;SHT30;60886;55.034;73.150;2023-01-23T09:11:43;-1.73;70.82
72762;SHT30;60886;55.034;73.150;2023-01-23T09:14:12;-1.62;70.38
72762;SHT30;60886;55.034;73.150;2023-01-23T09:16:38;-1.65;70.61
72762;SHT30;60886;55.034;73.150;2023-01-23T09:19:06;-1.67;70.68
72762;SHT30;60886;55.034;73.150;2023-01-23T09:21:35;-1.77;70.67
72762;SHT30;60886;55.034;73.150;2023-01-23T09:24:01;-1.86;71.06
72762;SHT30;60886;55.034;73.150;2023-01-23T09:26:28;-1.90;70.75
72762;SHT30;60886;55.034;73.150;2023-01-23T09:28:58;-1.90;71.46
72762;SHT30;60886;55.034;73.150;2023-01-23T09:31:25;-1.91;70.96
72762;SHT30;60886;55.034;73.150;2023-01-23T09:33:52;-1.93;71.24
72762;SHT30;60886;55.034;73.150;2023-01-23T09:36:18;-1.89;71.08
72762;SHT30;60886;55.034;73.150;2023-01-23T09:38:49;-1.86;70.85
72762;SHT30;60886;55.034;73.150;2023-01-23T09:41:19;-1.93;70.76
72762;SHT30;60886;55.034;73.150;2023-01-23T09:44:01;-1.87;71.00
72762;SHT30;60886;55.034;73.150;2023-01-23T09:49:21;-2.00;71.00
72762;SHT30;60886;55.034;73.150;2023-01-23T09:52:00;-2.01;71.17
72762;SHT30;60886;55.034;73.150;2023-01-23T09:54:45;-2.04;71.50
72762;SHT30;60886;55.034;73.150;2023-01-23T09:57:20;-2.08;71.54
72762;SHT30;60886;55.034;73.150;2023-01-23T10:00:10;-2.10;71.81
72762;SHT30;60886;55.034;73.150;2023-01-23T10:02:43;-2.10;71.86
72762;SHT30;60886;55.034;73.150;2023-01-23T10:05:15;-2.15;72.07
72762;SHT30;60886;55.034;73.150;2023-01-23T10:07:58;-2.15;72.13
72762;SHT30;60886;55.034;73.150;2023-01-23T10:10:42;-2.14;72.08
72762;SHT30;60886;55.034;73.150;2023-01-23T10:13:28;-2.30;72.39
72762;SHT30;60886;55.034;73.150;2023-01-23T10:18:55;-2.33;72.89
72762;SHT30;60886;55.034;73.150;2023-01-23T10:24:44;-2.28;72.48
72762;SHT30;60886;55.034;73.150;2023-01-23T10:27:19;-2.34;72.66
72762;SHT30;60886;55.034;73.150;2023-01-23T10:29:55;-2.37;72.75
72762;SHT30;60886;55.034;73.150;2023-01-23T10:32:47;-2.41;72.70
72762;SHT30;60886;55.034;73.150;2023-01-23T10:35:34;-2.47;72.90
72762;SHT30;60886;55.034;73.150;2023-01-23T10:40:42;-2.54;73.06
72762;SHT30;60886;55.034;73.150;2023-01-23T10:43:39;-2.51;73.06
72762;SHT30;60886;55.034;73.150;2023-01-23T10:46:33;-2.55;73.10
72762;SHT30;60886;55.034;73.150;2023-01-23T10:49:03;-2.54;73.13
72762;SHT30;60886;55.034;73.150;2023-01-23T10:59:28;-2.57;73.26
72762;SHT30;60886;55.034;73.150;2023-01-23T11:02:17;-2.64;73.39
72762;SHT30;60886;55.034;73.150;2023-01-23T11:04:46;-2.69;73.42
72762;SHT30;60886;55.034;73.150;2023-01-23T11:07:15;-2.72;73.45
72762;SHT30;60886;55.034;73.150;2023-01-23T11:09:55;-2.71;73.55
72762;SHT30;60886;55.034;73.150;2023-01-23T11:12:30;-2.73;73.59
72762;SHT30;60886;55.034;73.150;2023-01-23T11:15:22;-2.72;73.65
72762;SHT30;60886;55.034;73.150;2023-01-23T11:17:51;-2.72;73.68
72762;SHT30;60886;55.034;73.150;2023-01-23T11:20:35;-2.68;73.46
72762;SHT30;60886;55.034;73.150;2023-01-23T11:23:16;-2.68;73.54
72762;SHT30;60886;55.034;73.150;2023-01-23T11:25:45;-2.69;73.50
72762;SHT30;60886;55.034;73.150;2023-01-23T11:28:28;-2.76;73.78
72762;SHT30;60886;55.034;73.150;2023-01-23T11:31:18;-2.85;73.83
72762;SHT30;60886;55.034;73.150;2023-01-23T11:33:56;-2.83;73.94
72762;SHT30;60886;55.034;73.150;2023-01-23T11:36:44;-2.82;73.78
72762;SHT30;60886;55.034;73.150;2023-01-23T11:39:44;-2.88;73.83
72762;SHT30;60886;55.034;73.150;2023-01-23T11:42:23;-2.82;73.85
72762;SHT30;60886;55.034;73.150;2023-01-23T11:45:00;-2.86;73.84
72762;SHT30;60886;55.034;73.150;2023-01-23T12:01:35;-2.96;74.01
72762;SHT30;60886;55.034;73.150;2023-01-23T12:07:24;-2.95;73.94
72762;SHT30;60886;55.034;73.150;2023-01-23T12:10:28;-3.00;74.04
72762;SHT30;60886;55.034;73.150;2023-01-23T12:18:56;-2.97;73.99
72762;SHT30;60886;55.034;73.150;2023-01-23T12:35:55;-2.85;73.98
72762;SHT30;60886;55.034;73.150;2023-01-23T12:44:21;-2.82;73.66
72762;SHT30;60886;55.034;73.150;2023-01-23T12:47:01;-2.81;73.77
72762;SHT30;60886;55.034;73.150;2023-01-23T12:49:34;-2.82;73.77
72762;SHT30;60886;55.034;73.150;2023-01-23T12:52:26;-2.86;73.79
72762;SHT30;60886;55.034;73.150;2023-01-23T12:57:44;-2.78;73.80
72762;SHT30;60886;55.034;73.150;2023-01-23T13:04:00;-2.79;73.91
72762;SHT30;60886;55.034;73.150;2023-01-23T13:14:39;-2.76;73.95
72762;SHT30;60886;55.034;73.150;2023-01-23T13:17:37;-2.81;73.76
72762;SHT30;60886;55.034;73.150;2023-01-23T13:23:27;-2.75;73.92
72762;SHT30;60886;55.034;73.150;2023-01-23T13:28:42;-2.78;74.07
72762;SHT30;60886;55.034;73.150;2023-01-23T13:33:50;-2.76;74.38
72762;SHT30;60886;55.034;73.150;2023-01-23T13:36:26;-2.78;74.08
72762;SHT30;60886;55.034;73.150;2023-01-23T13:50:49;-2.75;74.22
72762;SHT30;60886;55.034;73.150;2023-01-23T13:53:22;-2.82;74.34
72762;SHT30;60886;55.034;73.150;2023-01-23T13:56:17;-2.81;74.54
72762;SHT30;60886;55.034;73.150;2023-01-23T13:59:10;-2.78;74.39
72762;SHT30;60886;55.034;73.150;2023-01-23T14:02:23;-2.76;74.41
72762;SHT30;60886;55.034;73.150;2023-01-23T14:05:18;-2.72;74.30
72762;SHT30;60886;55.034;73.150;2023-01-23T14:07:49;-2.73;74.35
72762;SHT30;60886;55.034;73.150;2023-01-23T14:10:29;-2.69;74.32
72762;SHT30;60886;55.034;73.150;2023-01-23T14:13:02;-2.72;74.47
72762;SHT30;60886;55.034;73.150;2023-01-23T14:15:29;-2.69;74.31
72762;SHT30;60886;55.034;73.150;2023-01-23T14:21:26;-2.72;74.39
72762;SHT30;60886;55.034;73.150;2023-01-23T14:24:00;-2.72;74.41
72762;SHT30;60886;55.034;73.150;2023-01-23T14:26:33;-2.71;74.33
72762;SHT30;60886;55.034;73.150;2023-01-23T14:29:20;-2.71;74.27
72762;SHT30;60886;55.034;73.150;2023-01-23T14:31:47;-2.69;74.33
72762;SHT30;60886;55.034;73.150;2023-01-23T14:34:26;-2.71;74.31
72762;SHT30;60886;55.034;73.150;2023-01-23T14:37:02;-2.68;74.42
72762;SHT30;60886;55.034;73.150;2023-01-23T14:39:32;-2.65;74.36
72762;SHT30;60886;55.034;73.150;2023-01-23T14:41:59;-2.68;74.40
72762;SHT30;60886;55.034;73.150;2023-01-23T14:44:29;-2.66;74.39
72762;SHT30;60886;55.034;73.150;2023-01-23T14:46:59;-2.65;74.46
72762;SHT30;60886;55.034;73.150;2023-01-23T14:49:30;-2.62;74.23
72762;SHT30;60886;55.034;73.150;2023-01-23T14:52:06;-2.64;74.30
72762;SHT30;60886;55.034;73.150;2023-01-23T14:54:33;-2.65;74.43
72762;SHT30;60886;55.034;73.150;2023-01-23T14:57:02;-2.64;74.27
72762;SHT30;60886;55.034;73.150;2023-01-23T14:59:39;-2.62;74.29
72762;SHT30;60886;55.034;73.150;2023-01-23T15:02:45;-2.64;74.33
72762;SHT30;60886;55.034;73.150;2023-01-23T15:05:27;-2.58;74.25
72762;SHT30;60886;55.034;73.150;2023-01-23T15:08:19;-2.59;74.12
72762;SHT30;60886;55.034;73.150;2023-01-23T15:10:56;-2.59;74.04
72762;SHT30;60886;55.034;73.150;2023-01-23T15:13:50;-2.61;74.05
72762;SHT30;60886;55.034;73.150;2023-01-23T15:16:22;-2.66;74.14
72762;SHT30;60886;55.034;73.150;2023-01-23T15:18:57;-2.66;74.11
72762;SHT30;60886;55.034;73.150;2023-01-23T15:21:34;-2.68;74.06
72762;SHT30;60886;55.034;73.150;2023-01-23T15:26:54;-2.78;73.92
72762;SHT30;60886;55.034;73.150;2023-01-23T15:29:32;-2.95;74.16
72762;SHT30;60886;55.034;73.150;2023-01-23T15:32:00;-2.97;74.24
72762;SHT30;60886;55.034;73.150;2023-01-23T15:34:36;-3.00;74.36
72762;SHT30;60886;55.034;73.150;2023-01-23T15:39:58;-3.09;74.24
72762;SHT30;60886;55.034;73.150;2023-01-23T15:42:32;-3.07;74.59
72762;SHT30;60886;55.034;73.150;2023-01-23T15:45:13;-3.04;74.61
72762;SHT30;60886;55.034;73.150;2023-01-23T15:47:39;-3.03;74.95
72762;SHT30;60886;55.034;73.150;2023-01-23T15:50:06;-2.97;74.67
72762;SHT30;60886;55.034;73.150;2023-01-23T15:52:51;-2.93;74.75
72762;SHT30;60886;55.034;73.150;2023-01-23T15:55:19;-2.86;74.56
72762;SHT30;60886;55.034;73.150;2023-01-23T15:57:47;-2.82;74.66
72762;SHT30;60886;55.034;73.150;2023-01-23T16:00:15;-2.88;74.74
72762;SHT30;60886;55.034;73.150;2023-01-23T16:02:42;-2.82;74.75
72762;SHT30;60886;55.034;73.150;2023-01-23T16:05:09;-2.79;74.68
72762;SHT30;60886;55.034;73.150;2023-01-23T16:07:41;-2.79;74.67
72762;SHT30;60886;55.034;73.150;2023-01-23T16:10:22;-2.68;74.44
72762;SHT30;60886;55.034;73.150;2023-01-23T16:12:53;-2.72;74.47
72762;SHT30;60886;55.034;73.150;2023-01-23T16:15:28;-2.68;74.53
72762;SHT30;60886;55.034;73.150;2023-01-23T16:17:58;-2.64;74.38
72762;SHT30;60886;55.034;73.150;2023-01-23T16:20:34;-2.61;74.37
72762;SHT30;60886;55.034;73.150;2023-01-23T16:23:23;-2.66;74.43
72762;SHT30;60886;55.034;73.150;2023-01-23T16:25:59;-2.65;74.52
72762;SHT30;60886;55.034;73.150;2023-01-23T16:28:29;-2.62;74.43
72762;SHT30;60886;55.034;73.150;2023-01-23T16:31:10;-2.64;74.39
72762;SHT30;60886;55.034;73.150;2023-01-23T16:33:37;-2.66;74.61
72762;SHT30;60886;55.034;73.150;2023-01-23T16:36:04;-2.66;74.67
72762;SHT30;60886;55.034;73.150;2023-01-23T16:38:36;-2.64;74.63
72762;SHT30;60886;55.034;73.150;2023-01-23T16:41:02;-2.68;74.82
72762;SHT30;60886;55.034;73.150;2023-01-23T16:43:28;-2.62;74.71
72762;SHT30;60886;55.034;73.150;2023-01-23T16:45:55;-2.62;74.77
72762;SHT30;60886;55.034;73.150;2023-01-23T16:48:25;-2.62;74.62
72762;SHT30;60886;55.034;73.150;2023-01-23T16:50:55;-2.66;74.87
72762;SHT30;60886;55.034;73.150;2023-01-23T16:53:46;-2.68;75.17
72762;SHT30;60886;55.034;73.150;2023-01-23T16:56:20;-2.68;74.97
72762;SHT30;60886;55.034;73.150;2023-01-23T16:58:48;-2.73;75.24
72762;SHT30;60886;55.034;73.150;2023-01-23T17:01:18;-2.72;75.21
72762;SHT30;60886;55.034;73.150;2023-01-23T17:03:52;-2.71;75.43
72762;SHT30;60886;55.034;73.150;2023-01-23T17:06:19;-2.69;75.36
72762;SHT30;60886;55.034;73.150;2023-01-23T17:08:51;-2.73;75.31
72762;SHT30;60886;55.034;73.150;2023-01-23T17:11:25;-2.75;75.57
72762;SHT30;60886;55.034;73.150;2023-01-23T17:13:58;-2.75;75.61
72762;SHT30;60886;55.034;73.150;2023-01-23T17:16:25;-2.76;75.63
72762;SHT30;60886;55.034;73.150;2023-01-23T17:18:52;-2.78;75.52
72762;SHT30;60886;55.034;73.150;2023-01-23T17:21:32;-2.78;75.49
72762;SHT30;60886;55.034;73.150;2023-01-23T17:23:59;-2.73;75.40
72762;SHT30;60886;55.034;73.150;2023-01-23T17:26:26;-2.75;75.42
72762;SHT30;60886;55.034;73.150;2023-01-23T17:28:52;-2.78;75.60
72762;SHT30;60886;55.034;73.150;2023-01-23T17:31:23;-2.75;75.75
72762;SHT30;60886;55.034;73.150;2023-01-23T17:34:02;-2.76;75.52
72762;SHT30;60886;55.034;73.150;2023-01-23T17:36:28;-2.76;75.62
72762;SHT30;60886;55.034;73.150;2023-01-23T17:39:05;-2.76;75.57
72762;SHT30;60886;55.034;73.150;2023-01-23T17:41:33;-2.76;75.58
72762;SHT30;60886;55.034;73.150;2023-01-23T17:44:04;-2.81;75.59
72762;SHT30;60886;55.034;73.150;2023-01-23T17:46:32;-2.79;75.67
72762;SHT30;60886;55.034;73.150;2023-01-23T17:49:02;-2.78;75.65